sensor_id;sensor_type;location;lat;lon;timestamp;pressure;altitude;pressure_sealevel;temperature;humidity
45789;BME280;31492;54.856;26.318;2023-04-29T00:01:22;1026.2;;;3.2;61.8
45789;BME280;31492;54.856;26.318;2023-04-29T00:06:34;1026.2;;;3.1;62
45789;BME280;31492;54.856;26.318;2023-04-29T00:11:24;1026.2;;;3;62.9
45789;BME280;31492;54.856;26.318;2023-04-29T00:16:10;1026.2;;;2.9;63
45789;BME280;31492;54.856;26.318;2023-04-29T00:21:10;1026.2;;;2.9;62.7
45789;BME280;31492;54.856;26.318;2023-04-29T00:26:10;1026.2;;;2.8;62.6
45789;BME280;31492;54.856;26.318;2023-04-29T00:31:16;1026.2;;;2.8;62.7
45789;BME280;31492;54.856;26.318;2023-04-29T00:36:32;1026.3;;;2.9;62.3
45789;BME280;31492;54.856;26.318;2023-04-29T00:41:22;1026.3;;;2.9;62.4
45789;BME280;31492;54.856;26.318;2023-04-29T00:46:10;1026.3;;;2.9;62.4
45789;BME280;31492;54.856;26.318;2023-04-29T00:51:20;1026.3;;;2.9;62.3
45789;BME280;31492;54.856;26.318;2023-04-29T00:56:16;1026.2;;;2.9;62.4
45789;BME280;31492;54.856;26.318;2023-04-29T01:01:26;1026.2;;;3;62.4
45789;BME280;31492;54.856;26.318;2023-04-29T01:06:39;1026.2;;;3.1;62.6
45789;BME280;31492;54.856;26.318;2023-04-29T01:11:22;1026.2;;;2.9;62.6
45789;BME280;31492;54.856;26.318;2023-04-29T01:16:10;1026.3;;;2.8;63.3
45789;BME280;31492;54.856;26.318;2023-04-29T01:21:10;1026.2;;;2.8;63.5
45789;BME280;31492;54.856;26.318;2023-04-29T01:26:24;1026.3;;;2.6;63.4
45789;BME280;31492;54.856;26.318;2023-04-29T01:31:37;1026.4;;;2.6;63.5
45789;BME280;31492;54.856;26.318;2023-04-29T01:36:12;1026.4;;;2.6;63.7
45789;BME280;31492;54.856;26.318;2023-04-29T01:41:32;1026.4;;;2.5;63.8
45789;BME280;31492;54.856;26.318;2023-04-29T01:46:22;1026.4;;;2.5;63.4
45789;BME280;31492;54.856;26.318;2023-04-29T01:51:44;1026.4;;;2.6;63.6
45789;BME280;31492;54.856;26.318;2023-04-29T01:56:16;1026.5;;;2.5;63.6
45789;BME280;31492;54.856;26.318;2023-04-29T02:01:34;1026.5;;;2.5;63.2
45789;BME280;31492;54.856;26.318;2023-04-29T02:06:24;1026.5;;;2.5;63.3
45789;BME280;31492;54.856;26.318;2023-04-29T02:11:10;1026.6;;;2.4;64
45789;BME280;31492;54.856;26.318;2023-04-29T02:16:10;1026.6;;;2.3;64.8
45789;BME280;31492;54.856;26.318;2023-04-29T02:21:22;1026.6;;;2.3;64.8
45789;BME280;31492;54.856;26.318;2023-04-29T02:26:32;1026.6;;;2.2;65
45789;BME280;31492;54.856;26.318;2023-04-29T02:31:10;1026.6;;;2.3;64.3
45789;BME280;31492;54.856;26.318;2023-04-29T02:36:34;1026.6;;;2.4;63.9
45789;BME280;31492;54.856;26.318;2023-04-29T02:41:24;1026.5;;;2.3;65.2
45789;BME280;31492;54.856;26.318;2023-04-29T02:46:24;1026.6;;;2.3;64.7
45789;BME280;31492;54.856;26.318;2023-04-29T02:51:22;1026.6;;;2.4;64.6
45789;BME280;31492;54.856;26.318;2023-04-29T02:56:10;1026.6;;;2.3;64.8
45789;BME280;31492;54.856;26.318;2023-04-29T03:01:10;1026.7;;;2.3;64.4
45789;BME280;31492;54.856;26.318;2023-04-29T03:06:10;1026.7;;;2.3;64
45789;BME280;31492;54.856;26.318;2023-04-29T03:11:24;1026.7;;;2.3;64.6
45789;BME280;31492;54.856;26.318;2023-04-29T03:16:10;1026.8;;;2.2;64.8
45789;BME280;31492;54.856;26.318;2023-04-29T03:21:10;1026.8;;;2.2;64.5
45789;BME280;31492;54.856;26.318;2023-04-29T03:26:28;1026.8;;;2.2;64
45789;BME280;31492;54.856;26.318;2023-04-29T03:31:34;1026.8;;;2.4;64.1
45789;BME280;31492;54.856;26.318;2023-04-29T03:36:34;1026.8;;;2.3;64.3
45789;BME280;31492;54.856;26.318;2023-04-29T03:41:32;1026.9;;;2.3;64.6
45789;BME280;31492;54.856;26.318;2023-04-29T03:46:24;1027;;;2.2;65.1
45789;BME280;31492;54.856;26.318;2023-04-29T03:51:10;1027;;;2.4;64.5
45789;BME280;31492;54.856;26.318;2023-04-29T03:56:42;1027;;;2.5;63.9
45789;BME280;31492;54.856;26.318;2023-04-29T04:01:22;1027;;;2.5;64
45789;BME280;31492;54.856;26.318;2023-04-29T04:06:10;1027;;;2.5;64
45789;BME280;31492;54.856;26.318;2023-04-29T04:11:24;1027;;;2.6;64
45789;BME280;31492;54.856;26.318;2023-04-29T04:16:10;1027;;;2.8;63.7
45789;BME280;31492;54.856;26.318;2023-04-29T04:21:10;1027;;;2.7;65
45789;BME280;31492;54.856;26.318;2023-04-29T04:26:34;1027;;;2.8;64.3
45789;BME280;31492;54.856;26.318;2023-04-29T04:31:38;1027.1;;;3;64.8
45789;BME280;31492;54.856;26.318;2023-04-29T04:36:28;1027;;;3;65.7
45789;BME280;31492;54.856;26.318;2023-04-29T04:41:22;1027;;;3;65.4
45789;BME280;31492;54.856;26.318;2023-04-29T04:46:10;1027;;;3.3;65.2
45789;BME280;31492;54.856;26.318;2023-04-29T04:51:10;1027;;;3.4;66.4
45789;BME280;31492;54.856;26.318;2023-04-29T04:56:34;1027;;;3.4;67.1
45789;BME280;31492;54.856;26.318;2023-04-29T05:01:30;1027.1;;;3.5;67.4
45789;BME280;31492;54.856;26.318;2023-04-29T05:06:10;1027.1;;;3.7;67.8
45789;BME280;31492;54.856;26.318;2023-04-29T05:11:24;1027.1;;;3.8;68.1
45789;BME280;31492;54.856;26.318;2023-04-29T05:16:16;1027.1;;;4;68.5
45789;BME280;31492;54.856;26.318;2023-04-29T05:21:18;1027.1;;;4.3;67.6
45789;BME280;31492;54.856;26.318;2023-04-29T05:26:24;1027.1;;;4.5;66.6
45789;BME280;31492;54.856;26.318;2023-04-29T05:31:30;1027.1;;;4.8;65.5
45789;BME280;31492;54.856;26.318;2023-04-29T05:36:10;1027;;;5.1;65
45789;BME280;31492;54.856;26.318;2023-04-29T05:41:20;1027;;;5.3;64.7
45789;BME280;31492;54.856;26.318;2023-04-29T05:46:30;1026.9;;;5.6;62.7
45789;BME280;31492;54.856;26.318;2023-04-29T05:51:32;1027;;;5.9;61.6
45789;BME280;31492;54.856;26.318;2023-04-29T05:56:10;1027;;;6.3;60.8
45789;BME280;31492;54.856;26.318;2023-04-29T06:01:26;1027;;;6.6;60.7
45789;BME280;31492;54.856;26.318;2023-04-29T06:06:44;1027;;;6.9;60.6
45789;BME280;31492;54.856;26.318;2023-04-29T06:11:10;1027;;;7.2;59.9
45789;BME280;31492;54.856;26.318;2023-04-29T06:16:24;1026.9;;;7.6;58.5
45789;BME280;31492;54.856;26.318;2023-04-29T06:21:24;1026.9;;;8.1;57.4
45789;BME280;31492;54.856;26.318;2023-04-29T06:26:10;1027;;;8.6;55.6
45789;BME280;31492;54.856;26.318;2023-04-29T06:31:24;1027;;;9;54.2
45789;BME280;31492;54.856;26.318;2023-04-29T06:36:24;1026.9;;;9.4;53.8
45789;BME280;31492;54.856;26.318;2023-04-29T06:41:30;1026.9;;;10;54.2
45789;BME280;31492;54.856;26.318;2023-04-29T06:46:20;1026.9;;;10.5;51
45789;BME280;31492;54.856;26.318;2023-04-29T06:51:30;1026.9;;;11.1;48.5
45789;BME280;31492;54.856;26.318;2023-04-29T06:56:26;1026.8;;;12;48.1
45789;BME280;31492;54.856;26.318;2023-04-29T07:01:32;1026.8;;;12.7;45.5
45789;BME280;31492;54.856;26.318;2023-04-29T07:06:28;1026.8;;;13.2;42.9
45789;BME280;31492;54.856;26.318;2023-04-29T07:11:25;1026.8;;;13.8;42.7
45789;BME280;31492;54.856;26.318;2023-04-29T07:16:34;1026.7;;;14.6;40.9
45789;BME280;31492;54.856;26.318;2023-04-29T07:21:24;1026.7;;;15.2;38.8
45789;BME280;31492;54.856;26.318;2023-04-29T07:26:17;1026.6;;;15.5;38
45789;BME280;31492;54.856;26.318;2023-04-29T07:31:24;1026.7;;;16.1;35.2
45789;BME280;31492;54.856;26.318;2023-04-29T07:36:10;1026.6;;;16.5;34.8
45789;BME280;31492;54.856;26.318;2023-04-29T07:41:30;1026.6;;;17;34.4
45789;BME280;31492;54.856;26.318;2023-04-29T07:46:42;1026.6;;;17.4;32.9
45789;BME280;31492;54.856;26.318;2023-04-29T07:51:22;1026.6;;;17.6;32.1
45789;BME280;31492;54.856;26.318;2023-04-29T07:56:18;1026.6;;;18.1;31.8
45789;BME280;31492;54.856;26.318;2023-04-29T08:01:34;1026.5;;;18.6;32.3
45789;BME280;31492;54.856;26.318;2023-04-29T08:06:10;1026.4;;;19.3;30.8
45789;BME280;31492;54.856;26.318;2023-04-29T08:11:19;1026.4;;;19.1;29.5
45789;BME280;31492;54.856;26.318;2023-04-29T08:16:54;1026.4;;;17.9;30.6
45789;BME280;31492;54.856;26.318;2023-04-29T08:21:16;1026.4;;;18.2;29
45789;BME280;31492;54.856;26.318;2023-04-29T08:26:20;1026.4;;;17.7;29.8
45789;BME280;31492;54.856;26.318;2023-04-29T08:31:58;1026.4;;;17.9;28.5
45789;BME280;31492;54.856;26.318;2023-04-29T08:36:22;1026.4;;;17.9;27.6
45789;BME280;31492;54.856;26.318;2023-04-29T08:41:20;1026.4;;;18;27.4
45789;BME280;31492;54.856;26.318;2023-04-29T08:46:22;1026.3;;;17.9;27.6
45789;BME280;31492;54.856;26.318;2023-04-29T08:51:32;1026.3;;;18.1;27.1
45789;BME280;31492;54.856;26.318;2023-04-29T08:56:11;1026.2;;;18.8;27.9
45789;BME280;31492;54.856;26.318;2023-04-29T09:01:22;1026.2;;;19.6;26
45789;BME280;31492;54.856;26.318;2023-04-29T09:06:10;1026.1;;;20.2;25.2
45789;BME280;31492;54.856;26.318;2023-04-29T09:11:10;1026.1;;;20.4;23.9
45789;BME280;31492;54.856;26.318;2023-04-29T09:16:44;1026.1;;;19.7;24.9
45789;BME280;31492;54.856;26.318;2023-04-29T09:21:25;1026.1;;;20.7;25.3
45789;BME280;31492;54.856;26.318;2023-04-29T09:26:33;1026.1;;;20.8;23.7
45789;BME280;31492;54.856;26.318;2023-04-29T09:31:26;1026.1;;;20.2;23.5
45789;BME280;31492;54.856;26.318;2023-04-29T09:36:36;1026;;;20.5;23.9
45789;BME280;31492;54.856;26.318;2023-04-29T09:41:24;1026;;;21.1;23.6
45789;BME280;31492;54.856;26.318;2023-04-29T09:46:11;1026;;;21.4;22.8
45789;BME280;31492;54.856;26.318;2023-04-29T09:51:18;1025.9;;;21;22.4
45789;BME280;31492;54.856;26.318;2023-04-29T09:56:10;1025.9;;;21.2;23
45789;BME280;31492;54.856;26.318;2023-04-29T10:01:24;1025.8;;;21.4;21.5
45789;BME280;31492;54.856;26.318;2023-04-29T10:06:32;1025.8;;;21;22.3
45789;BME280;31492;54.856;26.318;2023-04-29T10:11:24;1025.8;;;21;23.1
45789;BME280;31492;54.856;26.318;2023-04-29T10:16:21;1025.7;;;20.9;23.5
45789;BME280;31492;54.856;26.318;2023-04-29T10:21:10;1025.6;;;21.1;21.8
45789;BME280;31492;54.856;26.318;2023-04-29T10:26:11;1025.6;;;21.4;23.2
45789;BME280;31492;54.856;26.318;2023-04-29T10:31:26;1025.6;;;21.9;22.9
45789;BME280;31492;54.856;26.318;2023-04-29T10:36:32;1025.5;;;22.2;21.8
45789;BME280;31492;54.856;26.318;2023-04-29T10:41:25;1025.6;;;22.2;21.6
45789;BME280;31492;54.856;26.318;2023-04-29T10:46:25;1025.5;;;22;21.3
45789;BME280;31492;54.856;26.318;2023-04-29T10:51:10;1025.6;;;21.7;21.3
45789;BME280;31492;54.856;26.318;2023-04-29T10:56:20;1025.5;;;21.8;20.6
45789;BME280;31492;54.856;26.318;2023-04-29T11:01:26;1025.6;;;21;20.1
45789;BME280;31492;54.856;26.318;2023-04-29T11:06:10;1025.5;;;20.6;20.6
45789;BME280;31492;54.856;26.318;2023-04-29T11:11:22;1025.5;;;20.4;21.4
45789;BME280;31492;54.856;26.318;2023-04-29T11:16:24;1025.4;;;20.5;21.5
45789;BME280;31492;54.856;26.318;2023-04-29T11:21:10;1025.4;;;20.7;22.1
45789;BME280;31492;54.856;26.318;2023-04-29T11:26:44;1025.3;;;21.3;22.1
45789;BME280;31492;54.856;26.318;2023-04-29T11:31:16;1025.2;;;21.4;21.6
45789;BME280;31492;54.856;26.318;2023-04-29T11:36:20;1025.2;;;21.8;21.7
45789;BME280;31492;54.856;26.318;2023-04-29T11:41:28;1025.1;;;22;21.7
45789;BME280;31492;54.856;26.318;2023-04-29T11:46:21;1025.1;;;21.8;20.8
45789;BME280;31492;54.856;26.318;2023-04-29T11:51:22;1025;;;21.8;21.8
45789;BME280;31492;54.856;26.318;2023-04-29T11:56:10;1024.9;;;22.2;21.5
45789;BME280;31492;54.856;26.318;2023-04-29T12:01:20;1024.9;;;22.3;21.2
45789;BME280;31492;54.856;26.318;2023-04-29T12:06:12;1024.9;;;22.4;20.8
45789;BME280;31492;54.856;26.318;2023-04-29T12:11:10;1024.8;;;22.4;20.9
45789;BME280;31492;54.856;26.318;2023-04-29T12:16:10;1024.8;;;22.4;19.4
45789;BME280;31492;54.856;26.318;2023-04-29T12:21:24;1024.8;;;21.7;19.7
45789;BME280;31492;54.856;26.318;2023-04-29T12:26:10;1024.7;;;21.8;20.3
45789;BME280;31492;54.856;26.318;2023-04-29T12:31:34;1024.7;;;22.1;20.2
45789;BME280;31492;54.856;26.318;2023-04-29T12:36:22;1024.7;;;21.9;20.5
45789;BME280;31492;54.856;26.318;2023-04-29T12:41:34;1024.6;;;21.8;20.3
45789;BME280;31492;54.856;26.318;2023-04-29T12:46:10;1024.5;;;22.2;21.1
45789;BME280;31492;54.856;26.318;2023-04-29T12:51:32;1024.5;;;22.5;20.9
45789;BME280;31492;54.856;26.318;2023-04-29T12:56:10;1024.4;;;22.5;19.7
45789;BME280;31492;54.856;26.318;2023-04-29T13:01:10;1024.4;;;22.1;20.2
45789;BME280;31492;54.856;26.318;2023-04-29T13:06:10;1024.4;;;22.3;20.4
45789;BME280;31492;54.856;26.318;2023-04-29T13:11:24;1024.4;;;22.1;19.3
45789;BME280;31492;54.856;26.318;2023-04-29T13:16:24;1024.3;;;21.5;19.3
45789;BME280;31492;54.856;26.318;2023-04-29T13:21:10;1024.3;;;21.5;20.3
45789;BME280;31492;54.856;26.318;2023-04-29T13:26:10;1024.3;;;21.6;20.8
45789;BME280;31492;54.856;26.318;2023-04-29T13:31:22;1024.2;;;21.6;20.2
45789;BME280;31492;54.856;26.318;2023-04-29T13:36:10;1024.2;;;20.9;20
45789;BME280;31492;54.856;26.318;2023-04-29T13:41:20;1024.2;;;20.7;20.8
45789;BME280;31492;54.856;26.318;2023-04-29T13:46:32;1024.1;;;21;21
45789;BME280;31492;54.856;26.318;2023-04-29T13:51:30;1024;;;21.1;20.9
45789;BME280;31492;54.856;26.318;2023-04-29T13:56:44;1024.1;;;20.9;21.1
45789;BME280;31492;54.856;26.318;2023-04-29T14:01:32;1024;;;20.2;20.8
45789;BME280;31492;54.856;26.318;2023-04-29T14:06:16;1023.9;;;19.9;21.9
45789;BME280;31492;54.856;26.318;2023-04-29T14:11:44;1023.9;;;19.7;21.8
45789;BME280;31492;54.856;26.318;2023-04-29T14:16:22;1023.9;;;19.2;21.7
45789;BME280;31492;54.856;26.318;2023-04-29T14:21:20;1023.8;;;18.8;21.8
45789;BME280;31492;54.856;26.318;2023-04-29T14:26:10;1023.8;;;18.4;22.3
45789;BME280;31492;54.856;26.318;2023-04-29T14:31:10;1023.8;;;18.2;22.8
45789;BME280;31492;54.856;26.318;2023-04-29T14:36:10;1023.7;;;17.9;22.8
45789;BME280;31492;54.856;26.318;2023-04-29T14:41:24;1023.7;;;17.7;22.9
45789;BME280;31492;54.856;26.318;2023-04-29T14:46:29;1023.6;;;17.4;23.1
45789;BME280;31492;54.856;26.318;2023-04-29T14:51:32;1023.6;;;17.2;23.2
45789;BME280;31492;54.856;26.318;2023-04-29T14:56:36;1023.5;;;17.1;23.1
45789;BME280;31492;54.856;26.318;2023-04-29T15:01:56;1023.5;;;17;23.4
45789;BME280;31492;54.856;26.318;2023-04-29T15:06:32;1023.5;;;16.8;23.6
45789;BME280;31492;54.856;26.318;2023-04-29T15:11:22;1023.5;;;16.7;24.4
45789;BME280;31492;54.856;26.318;2023-04-29T15:16:10;1023.5;;;16.6;24.5
45789;BME280;31492;54.856;26.318;2023-04-29T15:21:24;1023.5;;;16.5;24.6
45789;BME280;31492;54.856;26.318;2023-04-29T15:26:10;1023.4;;;16.4;24.6
45789;BME280;31492;54.856;26.318;2023-04-29T15:31:10;1023.4;;;16.4;24.9
45789;BME280;31492;54.856;26.318;2023-04-29T15:36:34;1023.3;;;16.3;25.3
45789;BME280;31492;54.856;26.318;2023-04-29T15:41:10;1023.4;;;16.3;26.1
45789;BME280;31492;54.856;26.318;2023-04-29T15:46:27;1023.4;;;16.2;25.8
45789;BME280;31492;54.856;26.318;2023-04-29T15:51:42;1023.4;;;16.1;25.9
45789;BME280;31492;54.856;26.318;2023-04-29T15:56:23;1023.3;;;16.1;26
45789;BME280;31492;54.856;26.318;2023-04-29T16:01:22;1023.3;;;16.1;26.1
45789;BME280;31492;54.856;26.318;2023-04-29T16:06:10;1023.2;;;16;26.3
45789;BME280;31492;54.856;26.318;2023-04-29T16:11:10;1023.2;;;16;26.9
45789;BME280;31492;54.856;26.318;2023-04-29T16:16:10;1023.2;;;15.9;27
45789;BME280;31492;54.856;26.318;2023-04-29T16:21:36;1023.2;;;15.8;27.1
45789;BME280;31492;54.856;26.318;2023-04-29T16:26:10;1023.2;;;15.8;27.1
45789;BME280;31492;54.856;26.318;2023-04-29T16:31:26;1023.2;;;15.7;27.6
45789;BME280;31492;54.856;26.318;2023-04-29T16:36:48;1023.1;;;15.6;28
45789;BME280;31492;54.856;26.318;2023-04-29T16:41:16;1023.1;;;15.5;28.6
45789;BME280;31492;54.856;26.318;2023-04-29T16:46:43;1023.2;;;15.4;28.6
45789;BME280;31492;54.856;26.318;2023-04-29T16:51:22;1023.2;;;15.3;29.1
45789;BME280;31492;54.856;26.318;2023-04-29T16:56:16;1023.2;;;15.2;29.3
45789;BME280;31492;54.856;26.318;2023-04-29T17:01:24;1023.2;;;15.1;29.5
45789;BME280;31492;54.856;26.318;2023-04-29T17:06:22;1023.2;;;14.9;30
45789;BME280;31492;54.856;26.318;2023-04-29T17:11:20;1023.2;;;14.7;30.5
45789;BME280;31492;54.856;26.318;2023-04-29T17:16:32;1023.2;;;14.6;30.8
45789;BME280;31492;54.856;26.318;2023-04-29T17:21:16;1023.2;;;14.4;31.5
45789;BME280;31492;54.856;26.318;2023-04-29T17:26:10;1023.2;;;14.1;32.1
45789;BME280;31492;54.856;26.318;2023-04-29T17:31:24;1023.2;;;13.9;33
45789;BME280;31492;54.856;26.318;2023-04-29T17:36:10;1023.2;;;13.8;33.4
45789;BME280;31492;54.856;26.318;2023-04-29T17:41:20;1023.2;;;13.5;34.3
45789;BME280;31492;54.856;26.318;2023-04-29T17:46:34;1023.2;;;13.3;35.5
45789;BME280;31492;54.856;26.318;2023-04-29T17:51:30;1023.2;;;13.1;36.1
45789;BME280;31492;54.856;26.318;2023-04-29T17:56:10;1023.2;;;12.9;36.7
45789;BME280;31492;54.856;26.318;2023-04-29T18:01:16;1023.3;;;12.7;37.8
45789;BME280;31492;54.856;26.318;2023-04-29T18:06:10;1023.3;;;12.5;38.8
45789;BME280;31492;54.856;26.318;2023-04-29T18:11:28;1023.3;;;12.3;39.1
45789;BME280;31492;54.856;26.318;2023-04-29T18:16:36;1023.3;;;12.1;40
45789;BME280;31492;54.856;26.318;2023-04-29T18:21:32;1023.4;;;12;40.7
45789;BME280;31492;54.856;26.318;2023-04-29T18:26:20;1023.4;;;11.9;40.6
45789;BME280;31492;54.856;26.318;2023-04-29T18:31:10;1023.4;;;11.6;41.4
45789;BME280;31492;54.856;26.318;2023-04-29T18:36:10;1023.5;;;11.4;42.7
45789;BME280;31492;54.856;26.318;2023-04-29T18:41:32;1023.5;;;11.3;42.8
45789;BME280;31492;54.856;26.318;2023-04-29T18:46:24;1023.5;;;11.1;43.3
45789;BME280;31492;54.856;26.318;2023-04-29T18:51:26;1023.5;;;10.9;43
45789;BME280;31492;54.856;26.318;2023-04-29T18:56:10;1023.5;;;10.8;42.7
45789;BME280;31492;54.856;26.318;2023-04-29T19:01:10;1023.5;;;10.7;42.4
45789;BME280;31492;54.856;26.318;2023-04-29T19:06:36;1023.5;;;10.5;41.7
45789;BME280;31492;54.856;26.318;2023-04-29T19:11:10;1023.5;;;10.4;41.5
45789;BME280;31492;54.856;26.318;2023-04-29T19:16:10;1023.6;;;10.3;41.5
45789;BME280;31492;54.856;26.318;2023-04-29T19:21:10;1023.6;;;10.1;41.6
45789;BME280;31492;54.856;26.318;2023-04-29T19:26:38;1023.6;;;9.9;42
45789;BME280;31492;54.856;26.318;2023-04-29T19:31:16;1023.6;;;9.8;42.4
45789;BME280;31492;54.856;26.318;2023-04-29T19:36:26;1023.5;;;9.7;42.7
45789;BME280;31492;54.856;26.318;2023-04-29T19:41:10;1023.5;;;9.5;43.3
45789;BME280;31492;54.856;26.318;2023-04-29T19:46:10;1023.5;;;9.4;43.2
45789;BME280;31492;54.856;26.318;2023-04-29T19:51:26;1023.4;;;9.4;43.4
45789;BME280;31492;54.856;26.318;2023-04-29T19:56:22;1023.4;;;9.3;44.6
45789;BME280;31492;54.856;26.318;2023-04-29T20:01:38;1023.4;;;9.2;44.9
45789;BME280;31492;54.856;26.318;2023-04-29T20:06:10;1023.4;;;9.2;44.5
45789;BME280;31492;54.856;26.318;2023-04-29T20:11:10;1023.4;;;9;44.6
45789;BME280;31492;54.856;26.318;2023-04-29T20:16:26;1023.4;;;9;44.7
45789;BME280;31492;54.856;26.318;2023-04-29T20:21:24;1023.3;;;8.9;44.5
45789;BME280;31492;54.856;26.318;2023-04-29T20:26:24;1023.3;;;8.8;44.6
45789;BME280;31492;54.856;26.318;2023-04-29T20:31:10;1023.3;;;8.8;45
45789;BME280;31492;54.856;26.318;2023-04-29T20:36:10;1023.3;;;8.7;45.2
45789;BME280;31492;54.856;26.318;2023-04-29T20:41:10;1023.3;;;8.6;45.4
45789;BME280;31492;54.856;26.318;2023-04-29T20:46:10;1023.3;;;8.5;45.7
45789;BME280;31492;54.856;26.318;2023-04-29T20:51:22;1023.3;;;8.5;46
45789;BME280;31492;54.856;26.318;2023-04-29T20:56:16;1023.3;;;8.4;46.2
45789;BME280;31492;54.856;26.318;2023-04-29T21:01:22;1023.3;;;8.4;46.2
45789;BME280;31492;54.856;26.318;2023-04-29T21:06:24;1023.3;;;8.4;46.1
45789;BME280;31492;54.856;26.318;2023-04-29T21:11:28;1023.3;;;8.4;46
45789;BME280;31492;54.856;26.318;2023-04-29T21:16:10;1023.3;;;8.3;46.4
45789;BME280;31492;54.856;26.318;2023-04-29T21:21:11;1023.2;;;8.2;47
45789;BME280;31492;54.856;26.318;2023-04-29T21:26:26;1023.2;;;8.2;47
45789;BME280;31492;54.856;26.318;2023-04-29T21:31:24;1023.2;;;8.1;47
45789;BME280;31492;54.856;26.318;2023-04-29T21:36:10;1023.2;;;8.1;47.2
45789;BME280;31492;54.856;26.318;2023-04-29T21:41:14;1023.2;;;8;47.4
45789;BME280;31492;54.856;26.318;2023-04-29T21:46:22;1023.2;;;8.1;47.1
45789;BME280;31492;54.856;26.318;2023-04-29T21:51:22;1023.2;;;8;47.3
45789;BME280;31492;54.856;26.318;2023-04-29T21:56:10;1023.2;;;8;47.5
45789;BME280;31492;54.856;26.318;2023-04-29T22:01:22;1023.2;;;8;47.6
45789;BME280;31492;54.856;26.318;2023-04-29T22:06:22;1023.2;;;8;47.5
45789;BME280;31492;54.856;26.318;2023-04-29T22:11:22;1023.2;;;8;47.6
45789;BME280;31492;54.856;26.318;2023-04-29T22:16:10;1023.1;;;8;47.5
45789;BME280;31492;54.856;26.318;2023-04-29T22:21:22;1023.1;;;8;47.6
45789;BME280;31492;54.856;26.318;2023-04-29T22:26:38;1023;;;8;47.8
45789;BME280;31492;54.856;26.318;2023-04-29T22:31:22;1023;;;8;47.8
45789;BME280;31492;54.856;26.318;2023-04-29T22:36:22;1022.9;;;8;48
45789;BME280;31492;54.856;26.318;2023-04-29T22:41:10;1022.9;;;7.9;48.2
45789;BME280;31492;54.856;26.318;2023-04-29T22:46:10;1022.9;;;7.8;48.3
45789;BME280;31492;54.856;26.318;2023-04-29T22:51:10;1022.8;;;7.7;48.4
45789;BME280;31492;54.856;26.318;2023-04-29T22:56:28;1022.8;;;7.6;48.7
45789;BME280;31492;54.856;26.318;2023-04-29T23:01:22;1022.8;;;7.5;49
45789;BME280;31492;54.856;26.318;2023-04-29T23:06:10;1022.8;;;7.4;49.2
45789;BME280;31492;54.856;26.318;2023-04-29T23:11:10;1022.8;;;7.3;49.4
45789;BME280;31492;54.856;26.318;2023-04-29T23:16:20;1022.7;;;7.1;49.5
45789;BME280;31492;54.856;26.318;2023-04-29T23:21:30;1022.6;;;7.1;49.6
45789;BME280;31492;54.856;26.318;2023-04-29T23:26:34;1022.6;;;7;49.8
45789;BME280;31492;54.856;26.318;2023-04-29T23:31:28;1022.5;;;6.9;50.2
45789;BME280;31492;54.856;26.318;2023-04-29T23:36:10;1022.5;;;6.7;50.5
45789;BME280;31492;54.856;26.318;2023-04-29T23:41:10;1022.5;;;6.7;50.6
45789;BME280;31492;54.856;26.318;2023-04-29T23:46:22;1022.4;;;6.5;51.1
45789;BME280;31492;54.856;26.318;2023-04-29T23:51:10;1022.4;;;6.5;51.2
45789;BME280;31492;54.856;26.318;2023-04-29T23:56:10;1022.3;;;6.4;51.4
